Date,TemperatureHighF,TemperatureAvgF,TemperatureLowF,DewpointHighF,DewpointAvgF,DewpointLowF,HumidityHigh,HumidityAvg,HumidityLow,PressureMaxIn,PressureMinIn,WindSpeedMaxMPH,WindSpeedAvgMPH,GustSpeedMaxMPH,PrecipitationSumIn
2013-4-1,82.2,73.6,65.3,73.0,69.5,64.0,97,87,73,30.07,29.99,6,0,1,0.00
2013-4-2,82.2,72.7,65.4,72.0,67.5,64.0,98,84,60,30.11,30.02,5,0,0,0.01
2013-4-3,80.0,33.8,65.2,71.0,-20.1,-99.9,95,42,72,30.08,29.96,6,-521,0,0.00
2013-4-4,83.8,68.7,65.9,76.0,59.2,-99.9,96,83,76,30.04,29.90,7,-62,0,0.40
2013-4-5,72.8,68.1,64.7,70.0,64.8,59.0,97,89,80,30.03,29.86,5,0,0,1.25
2013-4-6,70.7,19.2,65.0,63.0,-53.4,-99.9,88,24,75,30.09,29.97,2,-712,0,0.00
2013-4-7,88.9,73.8,61.7,68.0,63.5,60.0,94,73,39,30.12,30.03,7,1,0,0.02
2013-4-8,88.2,74.2,63.0,70.0,65.3,61.0,92,75,47,30.12,30.03,7,1,0,0.01
2013-4-9,88.4,74.1,63.5,71.0,66.1,61.0,91,77,49,30.13,30.05,5,1,0,0.00
2013-4-10,89.4,76.9,65.9,76.0,70.1,64.0,94,80,62,30.10,29.96,11,2,0,0.00
2013-4-11,86.5,79.5,74.0,76.0,73.6,72.0,93,82,68,30.00,29.87,11,2,0,0.00
2013-4-12,88.2,80.5,76.1,78.0,75.5,74.0,95,85,69,29.96,29.88,9,1,0,0.00
2013-4-13,89.8,80.8,74.5,75.0,73.4,71.0,93,79,61,29.98,29.84,5,0,0,0.00
2013-4-14,90.7,75.6,71.6,77.0,64.7,-99.9,97,78,60,29.96,29.87,6,-51,0,0.00
2013-4-15,90.8,80.3,69.1,78.0,73.9,67.0,95,81,61,30.07,29.94,5,1,0,0.09
2013-4-16,90.8,78.9,70.1,77.0,72.9,68.0,95,82,61,30.11,30.02,7,1,0,0.34
2013-4-17,91.5,78.0,70.7,76.0,71.7,69.0,96,82,50,30.11,30.00,6,2,0,1.57
2013-4-18,90.3,68.2,69.0,77.0,48.5,-99.9,94,69,59,30.04,29.95,8,-124,0,0.00
2013-4-19,90.2,82.1,76.7,77.0,74.6,72.0,91,78,61,30.04,29.95,7,1,0,0.00
2013-4-20,87.2,47.8,74.8,77.0,4.0,-99.9,95,50,72,30.10,29.96,5,-406,0,0.00
2013-4-21,91.9,74.1,68.4,76.0,65.2,-99.9,95,80,57,30.10,29.99,7,-30,0,0.17
2013-4-22,88.8,75.9,68.5,75.0,69.7,66.0,93,82,57,30.07,29.94,6,1,0,0.21
2013-4-23,89.4,76.0,66.4,71.0,67.1,63.0,95,76,49,30.08,29.98,7,2,0,0.00
2013-4-24,86.4,40.2,65.3,68.0,-8.6,-99.9,87,43,54,30.13,30.05,6,-440,0,0.00
2013-4-25,87.7,76.2,66.8,70.0,64.9,-99.9,93,71,40,30.20,30.09,5,-10,0,0.00
2013-4-26,88.9,77.1,65.5,66.0,63.9,62.0,90,66,43,30.23,30.13,6,1,0,0.00
2013-4-27,88.8,71.4,66.3,68.0,51.7,-99.9,91,61,41,30.20,30.06,6,-71,0,0.00
2013-4-28,88.2,72.2,68.3,73.0,54.8,-99.9,87,65,56,30.10,29.95,8,-72,0,0.00
2013-4-29,88.5,76.6,67.2,74.0,68.2,63.0,90,76,59,30.02,29.92,9,1,0,0.00
2013-4-30,88.6,77.5,69.8,77.0,71.5,68.0,96,82,65,30.00,29.92,3,0,1,0.25